createdAt,value
2018-09-02T00:00:32.207Z,8.30
2018-09-02T00:03:00.784Z,7.80
2018-09-02T00:05:28.918Z,8.20
2018-09-02T00:07:57.210Z,7.93
2018-09-02T00:10:25.343Z,8.50
2018-09-02T00:12:53.411Z,8.10
2018-09-02T00:15:21.561Z,8.30
2018-09-02T00:17:49.755Z,8.57
2018-09-02T00:20:17.771Z,7.97
2018-09-02T00:22:45.801Z,8.73
2018-09-02T00:25:13.844Z,8.50
2018-09-02T00:27:41.914Z,7.80
2018-09-02T00:30:09.993Z,8.53
2018-09-02T00:32:38.180Z,8.60
2018-09-02T00:35:06.441Z,7.60
2018-09-02T00:37:34.480Z,8.17
2018-09-02T00:40:02.483Z,8.00
2018-09-02T00:42:30.523Z,7.80
2018-09-02T00:44:58.540Z,7.83
2018-09-02T00:47:26.543Z,8.37
2018-09-02T00:49:54.571Z,7.83
2018-09-02T00:52:22.588Z,7.40
2018-09-02T00:54:50.610Z,8.60
2018-09-02T00:57:18.635Z,7.50
2018-09-02T00:59:46.652Z,8.70
2018-09-02T01:02:14.684Z,8.43
2018-09-02T01:04:42.718Z,8.57
2018-09-02T01:07:10.743Z,8.57
2018-09-02T01:09:38.772Z,7.70
2018-09-02T01:12:06.782Z,8.60
2018-09-02T01:14:34.907Z,7.97
2018-09-02T01:17:03.106Z,7.90
2018-09-02T01:19:31.151Z,8.50
2018-09-02T01:21:59.191Z,8.10
2018-09-02T01:24:27.215Z,7.83
2018-09-02T01:26:55.230Z,8.23
2018-09-02T01:29:23.279Z,7.60
2018-09-02T01:31:51.320Z,8.20
2018-09-02T01:34:19.357Z,8.93
2018-09-02T01:36:47.400Z,8.43
2018-09-02T01:39:15.432Z,8.97
2018-09-02T01:41:43.470Z,8.43
2018-09-02T01:44:11.511Z,9.43
2018-09-02T01:46:39.534Z,9.50
2018-09-02T01:49:07.555Z,8.93
2018-09-02T01:51:35.596Z,9.03
2018-09-02T01:54:03.623Z,9.17
2018-09-02T01:56:31.638Z,8.70
2018-09-02T01:58:59.699Z,8.77
2018-09-02T02:01:27.730Z,8.90
2018-09-02T02:03:55.752Z,8.97
2018-09-02T02:06:23.914Z,8.60
2018-09-02T02:08:51.937Z,7.97
2018-09-02T02:11:19.966Z,9.13
2018-09-02T02:13:48.004Z,8.97
2018-09-02T02:16:16.033Z,8.73
2018-09-02T02:18:44.059Z,8.63
2018-09-02T02:21:12.071Z,8.70
2018-09-02T02:23:40.107Z,8.93
2018-09-02T02:26:08.128Z,8.87
2018-09-02T02:28:36.167Z,9.30
2018-09-02T02:31:04.410Z,8.97
2018-09-02T02:33:32.508Z,9.17
2018-09-02T02:36:00.543Z,8.80
2018-09-02T02:38:28.559Z,8.23
2018-09-02T02:40:56.580Z,8.37
2018-09-02T02:43:24.606Z,8.30
2018-09-02T02:45:52.634Z,8.57
2018-09-02T02:48:20.634Z,8.80
2018-09-02T02:50:48.655Z,8.00
2018-09-02T02:53:16.673Z,8.67
2018-09-02T02:55:44.701Z,8.53
2018-09-02T02:58:12.715Z,8.87
2018-09-02T03:00:40.728Z,8.87
2018-09-02T03:03:08.770Z,9.00
2018-09-02T03:05:36.802Z,9.57
2018-09-02T03:08:04.996Z,8.90
2018-09-02T03:10:33.004Z,8.00
2018-09-02T03:13:01.014Z,8.77
2018-09-02T03:15:29.029Z,8.53
2018-09-02T03:17:57.064Z,8.87
2018-09-02T03:20:25.076Z,8.87
2018-09-02T03:22:53.111Z,8.70
2018-09-02T03:25:21.175Z,8.37
2018-09-02T03:27:49.177Z,8.07
2018-09-02T03:30:17.203Z,8.70
2018-09-02T03:32:45.264Z,8.20
2018-09-02T03:35:13.371Z,8.43
2018-09-02T03:37:41.376Z,8.50
2018-09-02T03:40:09.394Z,8.20
2018-09-02T03:42:37.418Z,8.93
2018-09-02T03:45:05.499Z,8.33
2018-09-02T03:47:33.519Z,9.07
2018-09-02T03:50:01.595Z,8.83
2018-09-02T03:52:29.611Z,8.53
2018-09-02T03:54:57.634Z,8.77
2018-09-02T03:57:25.663Z,8.53
2018-09-02T03:59:53.680Z,8.17
2018-09-02T04:02:21.705Z,8.40
2018-09-02T04:04:49.740Z,8.47
2018-09-02T04:07:17.759Z,9.23
2018-09-02T04:09:45.776Z,8.63
2018-09-02T04:12:13.786Z,8.33
2018-09-02T04:14:41.852Z,8.20
2018-09-02T04:17:09.871Z,8.00
2018-09-02T04:19:37.892Z,8.87
2018-09-02T04:22:05.932Z,8.33
2018-09-02T04:24:33.976Z,8.20
2018-09-02T04:27:02.035Z,8.57
2018-09-02T04:29:30.057Z,8.50
2018-09-02T04:31:58.087Z,8.87
2018-09-02T04:34:26.111Z,8.43
2018-09-02T04:36:54.157Z,8.90
2018-09-02T04:39:22.197Z,8.97
2018-09-02T04:41:50.219Z,8.93
2018-09-02T04:44:18.246Z,9.23
2018-09-02T04:46:46.319Z,9.37
2018-09-02T04:49:14.354Z,9.20
2018-09-02T04:51:42.366Z,8.97
2018-09-02T04:54:10.471Z,9.67
2018-09-02T04:56:38.442Z,9.27
2018-09-02T04:59:06.495Z,9.67
2018-09-02T05:01:34.531Z,9.83
2018-09-02T05:04:02.668Z,9.87
2018-09-02T05:06:30.703Z,10.53
2018-09-02T05:08:58.740Z,9.97
2018-09-02T05:11:26.762Z,10.33
2018-09-02T05:13:54.801Z,10.03
2018-09-02T05:16:22.816Z,10.17
2018-09-02T05:18:50.857Z,9.40
2018-09-02T05:21:18.919Z,10.60
2018-09-02T05:23:46.931Z,10.50
2018-09-02T05:26:14.963Z,10.30
2018-09-02T05:28:43.001Z,11.07
2018-09-02T05:31:11.010Z,10.13
2018-09-02T05:33:39.039Z,10.03
2018-09-02T05:36:07.071Z,10.40
2018-09-02T05:38:35.092Z,9.93
2018-09-02T05:41:03.146Z,10.43
2018-09-02T05:43:31.171Z,10.53
2018-09-02T05:45:59.179Z,10.80
2018-09-02T05:48:27.206Z,11.30
2018-09-02T05:50:55.231Z,10.33
2018-09-02T05:53:23.267Z,10.60
2018-09-02T05:55:51.306Z,10.97
2018-09-02T05:58:19.324Z,9.93
2018-09-02T06:00:47.360Z,10.53
2018-09-02T06:03:15.370Z,11.13
2018-09-02T06:05:43.448Z,10.60
2018-09-02T06:08:11.492Z,10.40
2018-09-02T06:10:39.524Z,10.20
2018-09-02T06:13:07.540Z,10.30
2018-09-02T06:15:35.572Z,10.43
2018-09-02T06:18:03.602Z,9.90
2018-09-02T06:20:31.656Z,9.83
2018-09-02T06:22:59.699Z,10.03
2018-09-02T06:25:27.729Z,10.33
2018-09-02T06:27:55.765Z,9.47
2018-09-02T06:30:23.888Z,10.37
2018-09-02T06:32:51.986Z,8.97
2018-09-02T06:35:19.958Z,9.97
2018-09-02T06:37:48.011Z,9.93
2018-09-02T06:40:16.034Z,9.27
2018-09-02T06:42:44.060Z,9.97
2018-09-02T06:45:12.087Z,9.13
2018-09-02T06:47:40.138Z,10.10
2018-09-02T06:50:08.178Z,9.33
2018-09-02T06:52:36.236Z,8.90
2018-09-02T06:55:04.267Z,10.07
2018-09-02T06:57:32.322Z,8.80
2018-09-02T07:00:00.415Z,9.27
2018-09-02T07:02:28.434Z,8.93
2018-09-02T07:04:56.511Z,9.10
2018-09-02T07:07:24.621Z,9.30
2018-09-02T07:09:52.617Z,8.70
2018-09-02T07:12:20.854Z,9.23
2018-09-02T07:14:48.931Z,9.00
2018-09-02T07:17:16.955Z,9.00
2018-09-02T07:19:44.996Z,8.73
2018-09-02T07:22:13.011Z,8.63
2018-09-02T07:24:41.047Z,9.53
2018-09-02T07:27:09.087Z,8.30
2018-09-02T07:29:37.110Z,8.90
2018-09-02T07:32:05.183Z,9.50
2018-09-02T07:34:33.288Z,9.03
2018-09-02T07:37:01.295Z,8.80
2018-09-02T07:39:29.352Z,8.90
2018-09-02T07:41:57.378Z,9.40
2018-09-02T07:44:25.418Z,9.40
2018-09-02T07:46:53.444Z,9.07
2018-09-02T07:49:21.858Z,9.57
2018-09-02T07:51:49.877Z,9.07
2018-09-02T07:54:17.898Z,9.93
2018-09-02T07:56:45.929Z,8.63
2018-09-02T07:59:13.940Z,9.23
2018-09-02T08:01:42.062Z,9.57
2018-09-02T08:04:10.099Z,9.20
2018-09-02T08:06:38.124Z,9.57
2018-09-02T08:09:06.969Z,9.03
2018-09-02T08:11:35.013Z,8.53
2018-09-02T08:14:03.046Z,8.60
2018-09-02T08:16:31.071Z,9.43
2018-09-02T08:18:59.095Z,9.90
2018-09-02T08:21:27.114Z,9.67
2018-09-02T08:23:55.146Z,9.17
2018-09-02T08:26:23.198Z,10.00
2018-09-02T08:28:51.244Z,9.13
2018-09-02T08:31:19.329Z,10.27
2018-09-02T08:33:47.369Z,9.17
2018-09-02T08:36:15.693Z,10.17
2018-09-02T08:38:43.758Z,9.10
2018-09-02T08:41:11.813Z,9.37
2018-09-02T08:43:39.936Z,9.00
2018-09-02T08:46:08.084Z,7.70
2018-09-02T08:48:36.129Z,8.83
2018-09-02T08:51:04.144Z,8.23
2018-09-02T08:53:32.191Z,9.00
2018-09-02T08:56:00.273Z,8.43
2018-09-02T08:58:30.780Z,8.03
2018-09-02T09:00:58.908Z,7.90
2018-09-02T09:03:26.959Z,8.33
2018-09-02T09:05:55.008Z,8.67
2018-09-02T09:08:23.264Z,8.03
2018-09-02T09:10:51.714Z,8.37
2018-09-02T09:13:19.751Z,8.13
2018-09-02T09:15:47.811Z,7.57
2018-09-02T09:18:15.869Z,7.43
2018-09-02T09:20:43.918Z,7.30
2018-09-02T09:23:12.060Z,7.47
2018-09-02T09:25:40.118Z,7.40
2018-09-02T09:28:08.194Z,7.20
2018-09-02T09:30:36.247Z,8.13
2018-09-02T09:33:04.299Z,7.80
2018-09-02T09:35:32.345Z,7.40
2018-09-02T09:38:00.458Z,7.40
2018-09-02T09:40:28.492Z,7.83
2018-09-02T09:42:56.529Z,6.67
2018-09-02T09:45:24.556Z,7.60
2018-09-02T09:47:52.584Z,7.03
2018-09-02T09:50:20.646Z,7.17
2018-09-02T09:52:48.738Z,7.67
2018-09-02T09:55:16.824Z,7.20
2018-09-02T09:57:44.902Z,8.20
2018-09-02T10:00:15.140Z,8.23
2018-09-02T10:02:43.177Z,7.37
2018-09-02T10:05:11.249Z,6.63
2018-09-02T10:07:39.551Z,7.67
2018-09-02T10:10:07.922Z,7.63
2018-09-02T10:12:36.257Z,7.63
2018-09-02T10:15:04.584Z,8.23
2018-09-02T10:17:32.911Z,8.27
2018-09-02T10:20:01.235Z,7.40
2018-09-02T10:22:29.576Z,7.70
2018-09-02T10:24:57.872Z,8.57
2018-09-02T10:27:26.342Z,7.90
2018-09-02T10:29:54.636Z,7.63
2018-09-02T10:32:22.934Z,6.67
2018-09-02T10:34:51.282Z,6.87
2018-09-02T10:37:19.584Z,8.30
2018-09-02T10:39:47.912Z,8.37
2018-09-02T10:42:16.281Z,8.17
2018-09-02T10:44:44.596Z,7.27
2018-09-02T10:47:12.936Z,8.20
2018-09-02T10:49:41.278Z,7.10
2018-09-02T10:52:09.576Z,6.13
2018-09-02T10:54:37.885Z,6.40
2018-09-02T10:57:06.218Z,6.47
2018-09-02T10:59:34.608Z,6.43
2018-09-02T11:02:02.999Z,6.07
2018-09-02T11:04:31.320Z,6.80
2018-09-02T11:06:59.625Z,6.03
2018-09-02T11:09:27.930Z,5.97
2018-09-02T11:11:56.281Z,6.83
2018-09-02T11:14:24.589Z,6.90
2018-09-02T11:16:52.904Z,6.17
2018-09-02T11:19:21.260Z,6.10
2018-09-02T11:21:49.560Z,6.33
2018-09-02T11:24:17.859Z,5.47
2018-09-02T11:26:46.143Z,5.63
2018-09-02T11:29:14.499Z,6.27
2018-09-02T11:31:42.799Z,6.07
2018-09-02T11:34:11.195Z,6.40
2018-09-02T11:36:39.436Z,5.93
2018-09-02T11:39:08.460Z,5.83
2018-09-02T11:41:36.772Z,6.57
2018-09-02T11:44:05.072Z,5.50
2018-09-02T11:46:33.387Z,6.00
2018-09-02T11:49:01.677Z,5.70
2018-09-02T11:51:29.975Z,5.67
2018-09-02T11:53:58.302Z,7.33
2018-09-02T11:56:26.607Z,6.10
2018-09-02T11:58:54.931Z,6.70
2018-09-02T12:01:23.411Z,6.40
2018-09-02T12:03:51.757Z,5.87
2018-09-02T12:06:20.083Z,4.30
2018-09-02T12:08:48.358Z,4.90
2018-09-02T12:11:16.700Z,5.20
2018-09-02T12:13:45.026Z,4.70
2018-09-02T12:16:13.349Z,4.33
2018-09-02T12:18:41.671Z,4.20
2018-09-02T12:21:09.971Z,4.23
2018-09-02T12:23:38.325Z,5.37
2018-09-02T12:26:06.649Z,4.33
2018-09-02T12:28:35.233Z,3.73
2018-09-02T12:31:03.561Z,4.03
2018-09-02T12:33:31.874Z,4.27
2018-09-02T12:36:00.229Z,3.20
2018-09-02T12:38:28.535Z,3.43
2018-09-02T12:40:56.839Z,3.90
2018-09-02T12:43:25.134Z,3.27
2018-09-02T12:45:53.472Z,2.73
2018-09-02T12:48:21.852Z,3.10
2018-09-02T12:50:50.089Z,4.07
2018-09-02T12:53:18.404Z,4.33
2018-09-02T12:55:46.709Z,3.60
2018-09-02T12:58:15.007Z,4.10
2018-09-02T13:00:43.339Z,5.00
2018-09-02T13:03:11.642Z,4.33
2018-09-02T13:06:42.622Z,3.87
2018-09-02T13:09:10.929Z,4.10
2018-09-02T13:11:39.258Z,4.00
2018-09-02T13:16:33.876Z,3.47
2018-09-02T13:19:02.329Z,3.60
2018-09-02T13:21:30.534Z,3.60
2018-09-02T13:23:58.929Z,3.73
2018-09-02T13:26:27.469Z,3.53
2018-09-02T13:28:55.783Z,3.03
2018-09-02T13:31:24.530Z,3.17
2018-09-02T13:33:52.937Z,3.10
2018-09-02T13:36:21.230Z,3.83
2018-09-02T13:38:49.549Z,3.43
2018-09-02T13:41:17.899Z,3.20
2018-09-02T13:43:46.208Z,3.57
2018-09-02T13:46:14.530Z,3.83
2018-09-02T13:48:42.863Z,3.40
2018-09-02T13:51:11.211Z,2.97
2018-09-02T13:53:39.587Z,2.90
2018-09-02T13:56:07.895Z,3.17
2018-09-02T13:58:36.437Z,3.00
2018-09-02T14:01:04.799Z,2.80
2018-09-02T14:03:33.900Z,2.87
2018-09-02T14:06:02.248Z,3.73
2018-09-02T14:08:30.545Z,2.93
2018-09-02T14:10:58.862Z,2.93
2018-09-02T14:13:27.175Z,2.80
2018-09-02T14:15:55.499Z,2.90
2018-09-02T14:18:23.817Z,2.93
2018-09-02T14:20:52.476Z,2.47
2018-09-02T14:23:20.946Z,2.53
2018-09-02T14:25:49.273Z,2.80
2018-09-02T14:28:17.891Z,2.80
2018-09-02T14:30:46.300Z,3.00
2018-09-02T14:33:14.600Z,3.00
2018-09-02T14:35:42.994Z,3.00
2018-09-02T14:38:11.284Z,3.23
2018-09-02T14:40:39.603Z,3.30
2018-09-02T14:43:07.961Z,3.10
2018-09-02T14:45:36.484Z,3.50
2018-09-02T14:48:04.809Z,3.33
2018-09-02T14:50:33.123Z,2.80
2018-09-02T14:53:01.459Z,3.37
2018-09-02T14:55:29.754Z,2.93
2018-09-02T14:57:58.187Z,2.90
2018-09-02T15:00:26.507Z,2.63
2018-09-02T15:02:54.929Z,2.87
2018-09-02T15:05:23.255Z,2.90
2018-09-02T15:07:51.571Z,3.20
2018-09-02T15:10:19.877Z,2.60
2018-09-02T15:12:48.182Z,2.77
2018-09-02T15:15:16.496Z,2.93
2018-09-02T15:17:44.793Z,3.10
2018-09-02T15:20:13.107Z,2.90
2018-09-02T15:22:41.404Z,2.90
2018-09-02T15:25:09.714Z,2.57
2018-09-02T15:27:38.033Z,2.77
2018-09-02T15:30:07.093Z,3.27
2018-09-02T15:32:35.417Z,4.10
2018-09-02T15:35:03.765Z,3.77
2018-09-02T15:37:32.122Z,3.27
2018-09-02T15:40:00.419Z,3.50
2018-09-02T15:42:28.744Z,6.23
2018-09-02T15:44:57.116Z,4.10
2018-09-02T15:47:25.420Z,3.37
2018-09-02T15:49:53.741Z,3.57
2018-09-02T15:52:22.057Z,2.90
2018-09-02T15:54:50.379Z,3.87
2018-09-02T15:57:18.802Z,3.70
2018-09-02T15:59:47.087Z,3.10
2018-09-02T16:02:15.715Z,3.50
2018-09-02T16:04:44.078Z,3.37
2018-09-02T16:07:12.395Z,3.37
2018-09-02T16:09:40.710Z,3.40
2018-09-02T16:12:09.319Z,3.27
2018-09-02T16:14:37.646Z,3.50
2018-09-02T16:17:05.972Z,3.63
2018-09-02T16:19:34.281Z,3.30
2018-09-02T16:22:02.583Z,3.80
2018-09-02T16:24:30.911Z,3.40
2018-09-02T16:26:59.249Z,4.30
2018-09-02T16:29:27.618Z,3.77
2018-09-02T16:31:55.972Z,3.30
2018-09-02T16:34:24.413Z,3.60
2018-09-02T16:36:52.736Z,3.20
2018-09-02T16:39:21.113Z,3.17
2018-09-02T16:41:49.417Z,3.47
2018-09-02T16:44:17.764Z,3.07
2018-09-02T16:46:46.180Z,3.43
2018-09-02T16:49:14.512Z,3.23
2018-09-02T16:51:42.913Z,4.80
2018-09-02T16:54:11.551Z,3.73
2018-09-02T16:56:39.863Z,3.63
2018-09-02T16:59:08.164Z,3.27
2018-09-02T17:01:36.451Z,3.20
2018-09-02T17:04:06.818Z,3.40
2018-09-02T17:06:35.184Z,3.40
2018-09-02T17:09:03.659Z,2.90
2018-09-02T17:11:32.031Z,3.40
2018-09-02T17:14:00.384Z,3.50
2018-09-02T17:16:28.735Z,4.00
2018-09-02T17:19:00.718Z,3.73
2018-09-02T17:21:29.018Z,3.50
2018-09-02T17:23:57.337Z,3.70
2018-09-02T17:26:25.645Z,4.00
2018-09-02T17:28:53.951Z,3.67
2018-09-02T17:31:22.316Z,3.60
2018-09-02T17:33:50.626Z,3.67
2018-09-02T17:36:18.943Z,3.10
2018-09-02T17:38:47.360Z,3.43
2018-09-02T17:41:15.757Z,3.47
2018-09-02T17:43:44.079Z,4.10
2018-09-02T17:46:12.395Z,4.27
2018-09-02T17:48:40.693Z,4.33
2018-09-02T17:51:09.000Z,4.60
2018-09-02T17:53:37.318Z,4.40
2018-09-02T17:56:05.667Z,3.20
2018-09-02T17:58:33.996Z,3.30
2018-09-02T18:01:02.372Z,3.60
2018-09-02T18:03:30.716Z,3.90
2018-09-02T18:05:59.064Z,3.70
2018-09-02T18:08:27.457Z,3.70
2018-09-02T18:10:55.808Z,4.30
2018-09-02T18:13:24.130Z,3.93
2018-09-02T18:15:52.539Z,3.80
2018-09-02T18:18:20.841Z,3.87
2018-09-02T18:20:49.287Z,3.50
2018-09-02T18:23:17.777Z,4.10
2018-09-02T18:25:46.220Z,3.87
2018-09-02T18:28:17.606Z,3.80
2018-09-02T18:30:45.761Z,3.70
2018-09-02T18:33:13.791Z,3.90
2018-09-02T18:35:41.918Z,4.60
2018-09-02T18:38:09.966Z,3.80
2018-09-02T18:40:38.504Z,4.17
2018-09-02T18:43:06.877Z,3.83
2018-09-02T18:45:35.079Z,4.30
2018-09-02T18:48:03.133Z,4.57
2018-09-02T18:50:31.597Z,4.37
2018-09-02T18:53:00.180Z,4.17
2018-09-02T18:55:28.974Z,4.50
2018-09-02T18:57:57.450Z,3.97
2018-09-02T19:00:25.592Z,4.00
2018-09-02T19:02:53.810Z,3.80
2018-09-02T19:05:22.175Z,4.27
2018-09-02T19:07:50.759Z,3.93
2018-09-02T19:10:19.118Z,3.63
2018-09-02T19:12:47.171Z,4.13
2018-09-02T19:15:15.260Z,4.07
2018-09-02T19:17:43.662Z,4.53
2018-09-02T19:20:11.717Z,3.90
2018-09-02T19:22:39.878Z,3.90
2018-09-02T19:25:08.389Z,4.50
2018-09-02T19:27:36.540Z,4.40
2018-09-02T19:30:05.059Z,4.50
2018-09-02T19:32:33.280Z,4.10
2018-09-02T19:35:01.395Z,4.97
2018-09-02T19:37:29.825Z,4.33
2018-09-02T19:39:58.264Z,4.30
2018-09-02T19:42:26.536Z,4.33
2018-09-02T19:44:54.917Z,4.60
2018-09-02T19:47:23.142Z,4.77
2018-09-02T19:49:51.311Z,4.80
2018-09-02T19:52:19.395Z,5.23
2018-09-02T19:54:47.564Z,6.00
2018-09-02T19:57:15.729Z,8.07
2018-09-02T19:59:43.808Z,7.17
2018-09-02T20:02:11.965Z,6.53
2018-09-02T20:04:40.013Z,6.10
2018-09-02T20:07:08.242Z,6.40
2018-09-02T20:09:36.460Z,5.47
2018-09-02T20:12:04.516Z,5.27
2018-09-02T20:14:32.593Z,5.97
2018-09-02T20:17:01.139Z,5.23
2018-09-02T20:19:29.321Z,5.77
2018-09-02T20:21:57.522Z,5.87
2018-09-02T20:24:25.644Z,5.57
2018-09-02T20:26:53.697Z,6.10
2018-09-02T20:29:21.791Z,6.20
2018-09-02T20:31:49.863Z,5.93
2018-09-02T20:34:17.929Z,5.77
2018-09-02T20:36:45.968Z,6.50
2018-09-02T20:39:14.091Z,6.90
2018-09-02T20:41:42.135Z,6.00
2018-09-02T20:44:10.172Z,6.90
2018-09-02T20:46:38.219Z,6.87
2018-09-02T20:49:06.296Z,6.57
2018-09-02T20:51:34.339Z,7.30
2018-09-02T20:54:02.404Z,7.23
2018-09-02T20:56:30.453Z,7.37
2018-09-02T20:58:58.536Z,6.90
2018-09-02T21:01:26.648Z,6.73
2018-09-02T21:03:54.809Z,7.63
2018-09-02T21:06:22.914Z,7.37
2018-09-02T21:08:50.934Z,6.97
2018-09-02T21:11:19.010Z,8.00
2018-09-02T21:13:47.040Z,7.80
2018-09-02T21:16:15.156Z,7.43
2018-09-02T21:18:43.229Z,7.87
2018-09-02T21:21:11.314Z,7.50
2018-09-02T21:23:39.367Z,6.97
2018-09-02T21:26:07.429Z,8.00
2018-09-02T21:28:35.487Z,7.30
2018-09-02T21:31:03.543Z,7.83
2018-09-02T21:33:31.619Z,7.97
2018-09-02T21:35:59.755Z,7.83
2018-09-02T21:38:27.898Z,7.43
2018-09-02T21:40:56.042Z,8.40
2018-09-02T21:43:24.088Z,8.90
2018-09-02T21:45:52.185Z,8.40
2018-09-02T21:48:20.277Z,8.07
2018-09-02T21:50:48.478Z,8.33
2018-09-02T21:53:16.539Z,8.13
2018-09-02T21:55:44.582Z,9.53
2018-09-02T21:58:12.655Z,8.27
2018-09-02T22:00:41.671Z,9.07
2018-09-02T22:03:09.939Z,8.77
2018-09-02T22:05:37.972Z,8.70
2018-09-02T22:08:06.071Z,8.77
2018-09-02T22:10:34.241Z,8.50
2018-09-02T22:13:02.300Z,8.40
2018-09-02T22:15:30.371Z,8.63
2018-09-02T22:17:58.487Z,9.20
2018-09-02T22:20:26.638Z,8.87
2018-09-02T22:22:54.703Z,8.30
2018-09-02T22:25:22.823Z,8.70
2018-09-02T22:27:50.863Z,8.27
2018-09-02T22:30:18.934Z,8.10
2018-09-02T22:32:47.079Z,7.93
2018-09-02T22:35:15.160Z,7.90
2018-09-02T22:37:43.260Z,8.13
2018-09-02T22:40:11.698Z,8.00
2018-09-02T22:42:39.754Z,8.53
2018-09-02T22:45:07.802Z,8.13
2018-09-02T22:47:35.836Z,8.87
2018-09-02T22:50:03.927Z,8.27
2018-09-02T22:52:32.016Z,8.33
2018-09-02T22:55:00.172Z,7.93
2018-09-02T22:57:28.218Z,8.47
2018-09-02T22:59:56.294Z,8.10
2018-09-02T23:02:24.355Z,7.80
2018-09-02T23:04:52.446Z,8.33
2018-09-02T23:07:20.530Z,8.20
2018-09-02T23:09:48.590Z,8.70
2018-09-02T23:12:16.684Z,8.03
2018-09-02T23:14:44.798Z,8.53
2018-09-02T23:17:12.834Z,8.40
2018-09-02T23:19:40.867Z,8.63
2018-09-02T23:22:08.931Z,9.47
2018-09-02T23:24:37.042Z,8.83
2018-09-02T23:27:05.318Z,8.43
2018-09-02T23:29:33.363Z,8.97
2018-09-02T23:32:01.743Z,9.67
2018-09-02T23:34:29.775Z,8.67
2018-09-02T23:36:57.900Z,8.97
2018-09-02T23:39:26.043Z,9.23
2018-09-02T23:41:54.111Z,9.10
2018-09-02T23:44:22.212Z,9.90
2018-09-02T23:46:50.259Z,9.70
2018-09-02T23:49:18.293Z,9.17
2018-09-02T23:51:46.400Z,9.30
2018-09-02T23:54:14.414Z,9.93
2018-09-02T23:56:42.547Z,10.57
2018-09-02T23:59:10.588Z,10.20
